Time;durP1;ratioP1;P1;durP2;ratioP2;P2;SDS_P1;SDS_P2;PMS_P1;PMS_P2;Temp;Humidity;BMP_temperature;BMP_pressure;BME280_temperature;BME280_humidity;BME280_pressure;Samples;Min_cycle;Max_cycle;Signal;HPM_P1;HPM_P2
2022/09/05 00:02:31;;;;;;;2.83;1.75;;;21.60;79.60;;;;;;5047373;28;45236;-75
2022/09/05 00:05:09;;;;;;;4.95;1.75;;;21.60;79.60;;;;;;5047111;28;45496;-74
2022/09/05 00:07:45;;;;;;;3.20;1.77;;;21.60;79.60;;;;;;5046999;28;47271;-74
2022/09/05 00:10:24;;;;;;;4.30;1.80;;;21.60;79.60;;;;;;5047039;28;45436;-74
2022/09/05 00:12:55;;;;;;;6.72;1.77;;;21.60;79.60;;;;;;5047269;28;45127;-75
2022/09/05 00:15:31;;;;;;;4.18;1.60;;;21.60;79.60;;;;;;5047385;28;45448;-71
2022/09/05 00:18:29;;;;;;;2.97;1.42;;;21.60;79.60;;;;;;5046925;28;46260;-74
2022/09/05 00:21:02;;;;;;;4.57;1.80;;;21.70;79.80;;;;;;5046440;28;45204;-74
2022/09/05 00:23:40;;;;;;;2.17;1.55;;;21.70;79.70;;;;;;5047359;28;45268;-74
2022/09/05 00:26:30;;;;;;;3.78;1.75;;;21.70;79.70;;;;;;5046771;28;45666;-74
2022/09/05 00:29:09;;;;;;;2.53;1.60;;;21.70;79.70;;;;;;5043578;28;45385;-74
2022/09/05 00:31:50;;;;;;;2.70;1.75;;;21.70;79.70;;;;;;5046372;28;45255;-74
2022/09/05 00:34:33;;;;;;;4.32;1.88;;;21.70;79.70;;;;;;5046709;28;45234;-74
2022/09/05 00:37:01;;;;;;;3.00;2.03;;;21.70;79.70;;;;;;5046676;28;45407;-74
2022/09/05 00:39:33;;;;;;;4.15;1.77;;;21.70;79.80;;;;;;5046204;28;45584;-74
2022/09/05 00:42:07;;;;;;;3.38;1.70;;;21.70;79.70;;;;;;5047144;28;45288;-74
2022/09/05 00:44:38;;;;;;;4.93;1.70;;;21.70;79.70;;;;;;5082255;28;45289;-74
2022/09/05 00:47:10;;;;;;;2.90;1.70;;;21.70;80.10;;;;;;5087001;28;45439;-74
2022/09/05 00:49:43;;;;;;;2.95;1.73;;;21.70;79.70;;;;;;5086735;28;46530;-74
2022/09/05 00:52:14;;;;;;;2.40;1.58;;;21.70;79.70;;;;;;5086681;28;45319;-74
2022/09/05 00:55:04;;;;;;;3.08;2.03;;;21.70;80.50;;;;;;5086644;28;45242;-74
2022/09/05 00:57:59;;;;;;;2.28;1.50;;;21.80;80.70;;;;;;5084073;28;45455;-74
2022/09/05 01:00:44;;;;;;;3.05;1.63;;;21.70;80.50;;;;;;5086191;28;48104;-75
2022/09/05 01:03:36;;;;;;;2.90;2.13;;;21.70;81.00;;;;;;5086886;28;45260;-74
2022/09/05 01:06:25;;;;;;;3.20;2.08;;;21.70;81.50;;;;;;5086820;28;45296;-74
2022/09/05 01:09:17;;;;;;;6.57;2.13;;;21.70;81.40;;;;;;5087810;28;45269;-73
2022/09/05 01:12:09;;;;;;;2.92;2.33;;;21.70;81.30;;;;;;5086382;28;47682;-74
2022/09/05 01:14:58;;;;;;;4.53;2.40;;;21.60;81.40;;;;;;5086394;28;45364;-74
2022/09/05 01:17:38;;;;;;;3.85;2.50;;;21.60;81.50;;;;;;5086397;28;45315;-74
2022/09/05 01:20:24;;;;;;;4.18;2.40;;;21.60;81.90;;;;;;5086680;28;45185;-74
2022/09/05 01:23:06;;;;;;;2.70;2.15;;;21.60;82.20;;;;;;5086285;28;47827;-74
2022/09/05 01:25:44;;;;;;;4.30;2.50;;;21.60;82.30;;;;;;5086401;28;45313;-74
2022/09/05 01:28:22;;;;;;;4.03;2.53;;;21.70;82.40;;;;;;5086442;28;45214;-74
2022/09/05 01:30:54;;;;;;;2.85;2.10;;;21.60;83.30;;;;;;5086481;28;45190;-74
2022/09/05 01:33:31;;;;;;;3.47;2.00;;;21.70;82.40;;;;;;5084614;28;45522;-74
2022/09/05 01:36:21;;;;;;;3.22;2.00;;;21.70;82.50;;;;;;5042576;28;45204;-74
2022/09/05 01:38:57;;;;;;;7.68;2.20;;;21.70;82.90;;;;;;5045441;28;45287;-74
2022/09/05 01:41:30;;;;;;;3.55;2.05;;;21.60;82.60;;;;;;5045759;28;45459;-74
2022/09/05 01:44:30;;;;;;;3.03;2.03;;;21.60;82.60;;;;;;5045599;28;45482;-74
2022/09/05 01:47:09;;;;;;;2.88;2.15;;;21.60;83.30;;;;;;5045050;28;45285;-74
2022/09/05 01:49:53;;;;;;;4.85;1.90;;;21.60;82.90;;;;;;5045828;28;45390;-74
2022/09/05 01:52:38;;;;;;;4.10;1.80;;;21.60;83.00;;;;;;5045560;28;45300;-75
2022/09/05 01:55:29;;;;;;;4.15;1.90;;;21.50;83.40;;;;;;5044913;28;48332;-74
2022/09/05 01:58:05;;;;;;;3.33;1.80;;;21.50;83.30;;;;;;5044967;28;45365;-75
2022/09/05 02:00:39;;;;;;;3.08;1.77;;;21.50;83.50;;;;;;5043717;28;45208;-74
2022/09/05 02:03:20;;;;;;;3.60;1.88;;;21.40;83.60;;;;;;5045929;28;45323;-74
2022/09/05 02:06:09;;;;;;;2.88;2.17;;;21.40;84.10;;;;;;5045130;28;46480;-74
2022/09/05 02:08:57;;;;;;;4.18;2.08;;;21.30;84.40;;;;;;5045228;28;45155;-74
2022/09/05 02:11:40;;;;;;;3.88;1.90;;;21.30;84.50;;;;;;5045363;28;45359;-74
2022/09/05 02:14:19;;;;;;;3.72;1.55;;;21.40;84.90;;;;;;5045646;28;45271;-74
2022/09/05 02:16:47;;;;;;;5.43;1.85;;;21.40;84.30;;;;;;5044849;28;48234;-74
2022/09/05 02:19:23;;;;;;;3.50;1.98;;;21.40;84.20;;;;;;5045135;28;45365;-74
2022/09/05 02:21:58;;;;;;;3.75;2.20;;;21.40;84.20;;;;;;5045192;28;45487;-74
2022/09/05 02:24:34;;;;;;;3.58;2.50;;;21.30;84.20;;;;;;5045489;28;45231;-74
2022/09/05 02:27:18;;;;;;;3.88;2.00;;;21.30;84.70;;;;;;5044801;28;45602;-75
2022/09/05 02:29:54;;;;;;;3.58;2.13;;;21.20;84.90;;;;;;5045285;28;45385;-75
2022/09/05 02:32:24;;;;;;;4.60;2.22;;;21.20;84.90;;;;;;5045034;28;45326;-75
2022/09/05 02:35:01;;;;;;;2.72;1.92;;;21.20;84.80;;;;;;5044930;28;45275;-74
2022/09/05 02:37:36;;;;;;;3.22;1.63;;;21.10;85.60;;;;;;5044974;28;45737;-74
2022/09/05 02:40:09;;;;;;;3.97;2.00;;;21.20;85.00;;;;;;5044698;28;45226;-75
2022/09/05 02:42:45;;;;;;;3.92;1.83;;;21.40;84.10;;;;;;5045190;28;45270;-74
2022/09/05 02:45:22;;;;;;;2.30;1.58;;;21.40;83.30;;;;;;5042075;28;45232;-75
2022/09/05 02:47:57;;;;;;;2.60;1.65;;;21.50;83.40;;;;;;5044884;28;47255;-74
2022/09/05 02:50:39;;;;;;;3.42;2.05;;;21.50;83.30;;;;;;5044622;28;45210;-75
2022/09/05 02:53:08;;;;;;;2.60;2.25;;;21.50;84.50;;;;;;5042605;28;45347;-74
2022/09/05 02:55:52;;;;;;;5.30;2.20;;;21.40;83.30;;;;;;5044895;28;45438;-75
2022/09/05 02:58:38;;;;;;;7.00;2.03;;;21.50;83.30;;;;;;5044263;28;45346;-74
2022/09/05 03:01:11;;;;;;;8.70;2.33;;;21.40;83.50;;;;;;5044354;28;45262;-75
2022/09/05 03:03:48;;;;;;;2.25;1.83;;;21.40;83.50;;;;;;5045109;28;45142;-74
2022/09/05 03:06:31;;;;;;;4.47;2.05;;;21.40;83.40;;;;;;5044861;28;45277;-75
2022/09/05 03:09:10;;;;;;;4.07;2.33;;;21.40;83.50;;;;;;5048259;28;46738;-74
2022/09/05 03:12:19;;;;;;;4.32;1.90;;;21.30;83.40;;;;;;5047990;28;45211;-75
2022/09/05 03:15:28;;;;;;;3.60;2.47;;;21.30;83.60;;;;;;5026909;28;45461;-75
2022/09/05 03:18:35;;;;;;;3.70;2.47;;;21.30;83.60;;;;;;5045168;28;45313;-74
2022/09/05 03:21:37;;;;;;;3.30;2.15;;;21.30;83.80;;;;;;4973123;28;45615;-75
2022/09/05 03:24:40;;;;;;;3.85;2.28;;;21.20;84.00;;;;;;5047779;28;45241;-74
2022/09/05 03:27:39;;;;;;;4.60;2.60;;;21.20;84.90;;;;;;5045060;28;45299;-75
2022/09/05 03:30:10;;;;;;;4.55;2.63;;;21.30;83.70;;;;;;5021134;28;45324;-75
2022/09/05 03:33:12;;;;;;;3.97;2.60;;;21.40;83.20;;;;;;5047801;28;48178;-74
2022/09/05 03:36:13;;;;;;;6.95;2.88;;;21.40;82.80;;;;;;5048153;28;45202;-75
2022/09/05 03:39:17;;;;;;;4.63;3.13;;;21.40;83.10;;;;;;5047989;28;45399;-75
2022/09/05 03:41:58;;;;;;;4.72;2.90;;;21.30;83.50;;;;;;5048274;28;45360;-75
2022/09/05 03:44:38;;;;;;;4.95;2.80;;;21.40;83.70;;;;;;5045913;28;45278;-74
2022/09/05 03:47:51;;;;;;;3.88;2.78;;;21.40;82.90;;;;;;5045088;28;45219;-75
2022/09/05 03:50:28;;;;;;;4.93;3.50;;;21.40;83.20;;;;;;5047926;28;45397;-75
2022/09/05 03:53:27;;;;;;;4.65;3.15;;;21.30;83.60;;;;;;5045200;28;45256;-74
2022/09/05 03:56:04;;;;;;;4.88;3.40;;;21.30;83.70;;;;;;5047515;28;46826;-75
2022/09/05 03:58:56;;;;;;;4.35;3.45;;;21.30;83.60;;;;;;5046964;28;45996;-75
2022/09/05 04:01:34;;;;;;;4.38;3.15;;;21.30;83.80;;;;;;5046846;28;45215;-75
2022/09/05 04:04:05;;;;;;;4.07;3.03;;;21.20;83.50;;;;;;5047783;28;45191;-75
2022/09/05 04:06:38;;;;;;;4.32;3.28;;;21.20;84.00;;;;;;5047198;28;46262;-75
2022/09/05 04:09:13;;;;;;;3.55;2.67;;;21.20;83.80;;;;;;5047539;28;45194;-75
2022/09/05 04:11:44;;;;;;;8.43;2.55;;;21.30;84.30;;;;;;5047494;28;45199;-74
2022/09/05 04:14:20;;;;;;;4.18;2.40;;;21.20;84.10;;;;;;5047742;28;45206;-75
2022/09/05 04:16:52;;;;;;;3.45;2.60;;;21.10;84.30;;;;;;5047361;28;47764;-75
2022/09/05 04:19:28;;;;;;;3.47;2.20;;;21.10;84.40;;;;;;5046903;28;45289;-75
2022/09/05 04:22:09;;;;;;;3.65;2.30;;;21.20;84.20;;;;;;5044442;28;45251;-75
2022/09/05 04:24:43;;;;;;;3.10;2.03;;;21.20;84.10;;;;;;5047444;28;45416;-75
2022/09/05 04:27:34;;;;;;;2.42;2.08;;;21.30;84.00;;;;;;5046986;28;47023;-75
2022/09/05 04:30:15;;;;;;;3.10;2.00;;;21.20;84.30;;;;;;5044170;28;45147;-75
2022/09/05 04:32:52;;;;;;;3.13;2.17;;;21.20;85.20;;;;;;5047039;28;45122;-75
2022/09/05 04:35:29;;;;;;;4.43;2.30;;;21.20;84.20;;;;;;5048301;28;45441;-75
2022/09/05 04:38:04;;;;;;;3.15;2.42;;;21.20;84.50;;;;;;5047274;28;45176;-75
2022/09/05 04:40:40;;;;;;;3.90;2.20;;;21.10;84.30;;;;;;5046719;28;45974;-75
2022/09/05 04:43:11;;;;;;;6.40;2.45;;;21.10;84.30;;;;;;5046912;28;45143;-75
2022/09/05 04:45:43;;;;;;;5.07;2.33;;;21.10;84.30;;;;;;5047008;28;45181;-75
2022/09/05 04:48:14;;;;;;;3.72;2.45;;;21.10;84.20;;;;;;5046954;28;47013;-75
2022/09/05 04:50:55;;;;;;;4.45;2.47;;;21.10;84.70;;;;;;5046915;28;45362;-74
2022/09/05 04:53:36;;;;;;;3.60;2.10;;;21.10;84.50;;;;;;5046779;28;45253;-74
2022/09/05 04:56:11;;;;;;;4.00;1.98;;;21.10;84.70;;;;;;5047110;28;45564;-75
2022/09/05 04:58:43;;;;;;;2.95;1.90;;;21.10;84.40;;;;;;5046513;28;45217;-75
2022/09/05 05:01:15;;;;;;;2.88;1.98;;;21.10;84.50;;;;;;5046555;28;45131;-75
2022/09/05 05:03:43;;;;;;;2.72;1.70;;;21.10;84.50;;;;;;5046486;28;45258;-75
2022/09/05 05:06:19;;;;;;;4.07;2.05;;;21.10;84.30;;;;;;5046743;28;45205;-75
2022/09/05 05:08:51;;;;;;;2.47;1.80;;;21.10;84.30;;;;;;5046142;28;46232;-75
2022/09/05 05:11:22;;;;;;;5.30;1.80;;;21.10;84.20;;;;;;5046565;28;45314;-75
2022/09/05 05:13:54;;;;;;;3.42;2.10;;;21.20;83.90;;;;;;5046463;28;45467;-75
2022/09/05 05:16:26;;;;;;;2.22;1.80;;;21.20;83.90;;;;;;5046509;28;45262;-74
2022/09/05 05:18:58;;;;;;;2.60;1.90;;;21.20;83.50;;;;;;5043249;28;45100;-76
2022/09/05 05:21:27;;;;;;;5.90;1.83;;;21.30;83.50;;;;;;5043363;28;45548;-75
2022/09/05 05:23:56;;;;;;;2.83;1.83;;;21.20;83.50;;;;;;5046232;28;45055;-75
2022/09/05 05:26:28;;;;;;;4.75;1.90;;;21.20;83.50;;;;;;5046625;28;45495;-74
2022/09/05 05:28:59;;;;;;;3.35;1.95;;;21.30;83.10;;;;;;5047090;28;48846;-75
2022/09/05 05:31:30;;;;;;;3.15;1.65;;;21.30;82.90;;;;;;5045622;28;46521;-74
2022/09/05 05:34:01;;;;;;;4.50;2.15;;;21.30;83.30;;;;;;5046257;28;45287;-75
2022/09/05 05:36:32;;;;;;;4.53;1.92;;;21.20;83.60;;;;;;5046378;28;45243;-75
2022/09/05 05:39:06;;;;;;;4.75;1.90;;;21.20;83.30;;;;;;5043562;28;46081;-75
2022/09/05 05:41:40;;;;;;;4.32;2.10;;;21.30;83.20;;;;;;5046126;28;45160;-75
2022/09/05 05:44:13;;;;;;;3.28;2.20;;;21.10;83.80;;;;;;5045867;28;45364;-75
2022/09/05 05:46:45;;;;;;;5.57;1.85;;;21.20;83.90;;;;;;5046148;28;45318;-75
2022/09/05 05:49:39;;;;;;;2.78;1.80;;;21.10;84.10;;;;;;5045569;28;48824;-74
2022/09/05 05:52:26;;;;;;;4.45;2.28;;;21.10;84.90;;;;;;5042856;28;45449;-75
2022/09/05 05:54:59;;;;;;;5.03;1.83;;;21.10;84.10;;;;;;5046031;28;45292;-75
2022/09/05 05:57:54;;;;;;;2.20;1.73;;;21.10;84.20;;;;;;5045522;28;45279;-75
2022/09/05 06:00:33;;;;;;;2.08;1.80;;;21.10;84.10;;;;;;5045144;28;46341;-75
2022/09/05 06:03:42;;;;;;;4.10;2.10;;;21.20;83.80;;;;;;5045715;28;45179;-75
2022/09/05 06:06:22;;;;;;;3.50;2.00;;;21.20;83.80;;;;;;5025484;28;45266;-75
2022/09/05 06:09:28;;;;;;;6.78;2.08;;;21.30;83.60;;;;;;5045495;28;45452;-74
2022/09/05 06:12:38;;;;;;;4.18;2.17;;;21.30;83.40;;;;;;5045701;28;45431;-75
2022/09/05 06:15:29;;;;;;;2.65;1.50;;;21.10;83.90;;;;;;5045571;28;46182;-75
2022/09/05 06:18:24;;;;;;;3.60;2.10;;;21.20;83.80;;;;;;5045281;28;45254;-75
2022/09/05 06:21:08;;;;;;;3.55;1.98;;;21.20;83.50;;;;;;5043096;28;45193;-75
2022/09/05 06:24:21;;;;;;;2.92;2.10;;;21.30;83.30;;;;;;5045198;28;46432;-75
2022/09/05 06:27:18;;;;;;;2.17;1.70;;;21.40;83.20;;;;;;5005596;28;45629;-74
2022/09/05 06:29:54;;;;;;;4.22;1.90;;;21.40;83.30;;;;;;5045466;28;45250;-74
2022/09/05 06:32:32;;;;;;;3.13;1.95;;;21.60;82.20;;;;;;5045607;28;45447;-75
2022/09/05 06:35:26;;;;;;;3.38;2.00;;;21.60;82.20;;;;;;5045262;28;46089;-75
2022/09/05 06:38:04;;;;;;;4.15;1.58;;;21.60;82.30;;;;;;5045222;28;45370;-75
2022/09/05 06:40:38;;;;;;;4.82;1.70;;;21.70;82.40;;;;;;5045905;28;45219;-75
2022/09/05 06:43:25;;;;;;;2.50;1.98;;;21.70;81.80;;;;;;5046252;28;45176;-75
2022/09/05 06:46:26;;;;;;;5.15;1.85;;;21.80;81.40;;;;;;5045732;28;46044;-75
2022/09/05 06:48:58;;;;;;;6.78;1.67;;;21.80;81.70;;;;;;5034142;28;45432;-75
2022/09/05 06:52:03;;;;;;;3.80;1.70;;;21.90;81.40;;;;;;5048981;28;45415;-75
2022/09/05 06:55:04;;;;;;;5.97;1.95;;;21.90;81.10;;;;;;5048510;28;45060;-75
2022/09/05 06:57:47;;;;;;;3.80;1.90;;;21.80;81.70;;;;;;5048041;28;46340;-75
2022/09/05 07:00:22;;;;;;;3.33;1.55;;;21.80;82.90;;;;;;5048316;28;45279;-75
2022/09/05 07:03:06;;;;;;;5.53;2.00;;;21.90;82.40;;;;;;5048796;28;45368;-75
2022/09/05 07:05:38;;;;;;;3.92;2.00;;;21.90;82.10;;;;;;5048349;28;45356;-75
2022/09/05 07:08:19;;;;;;;1.90;1.70;;;21.90;81.80;;;;;;5048158;28;47990;-75
2022/09/05 07:10:57;;;;;;;2.78;1.58;;;21.80;82.50;;;;;;5049674;28;45180;-74
2022/09/05 07:13:31;;;;;;;2.85;1.60;;;21.90;82.90;;;;;;5048864;28;45196;-75
2022/09/05 07:16:08;;;;;;;2.28;1.65;;;21.90;82.90;;;;;;5048400;28;45369;-75
2022/09/05 07:18:43;;;;;;;4.88;1.98;;;21.90;82.90;;;;;;5048071;28;47765;-75
2022/09/05 07:21:19;;;;;;;1.33;1.23;;;21.90;82.70;;;;;;5048281;28;45201;-75
2022/09/05 07:23:51;;;;;;;3.05;1.67;;;22.00;82.20;;;;;;5048545;28;45152;-75
2022/09/05 07:26:20;;;;;;;2.30;1.73;;;22.00;81.40;;;;;;5048670;28;45208;-75
2022/09/05 07:28:53;;;;;;;4.40;1.50;;;22.10;80.80;;;;;;5048018;28;46745;-75
2022/09/05 07:31:25;;;;;;;2.05;1.60;;;22.20;82.60;;;;;;5047971;28;45140;-75
2022/09/05 07:34:08;;;;;;;1.40;1.20;;;22.20;80.60;;;;;;5048300;28;45310;-75
2022/09/05 07:36:40;;;;;;;2.60;1.75;;;22.30;80.70;;;;;;5048280;28;45447;-75
2022/09/05 07:39:10;;;;;;;2.80;1.50;;;22.20;80.70;;;;;;5047894;28;45295;-74
2022/09/05 07:41:38;;;;;;;1.73;1.40;;;22.30;80.70;;;;;;5047789;28;45328;-75
2022/09/05 07:44:10;;;;;;;3.47;1.65;;;22.30;80.30;;;;;;5047807;28;45264;-76
2022/09/05 07:46:40;;;;;;;4.25;1.35;;;22.30;80.30;;;;;;5048066;28;45366;-75
2022/09/05 07:49:13;;;;;;;1.90;1.40;;;22.40;79.60;;;;;;5047873;28;45489;-75
2022/09/05 07:51:49;;;;;;;6.50;2.00;;;22.40;80.30;;;;;;5048165;28;45157;-75
2022/09/05 07:54:22;;;;;;;2.60;1.45;;;22.40;79.70;;;;;;5047104;28;45211;-75
2022/09/05 07:56:52;;;;;;;1.80;1.40;;;22.40;80.30;;;;;;5048153;28;45117;-75
2022/09/05 07:59:21;;;;;;;3.00;1.58;;;22.40;79.50;;;;;;5047343;28;47921;-75
2022/09/05 08:01:53;;;;;;;4.18;1.70;;;22.40;79.70;;;;;;5047389;28;45790;-74
2022/09/05 08:04:26;;;;;;;1.30;1.20;;;22.40;79.30;;;;;;5049405;28;45329;-74
2022/09/05 08:06:56;;;;;;;1.98;1.40;;;22.50;80.10;;;;;;5047676;28;45520;-75
2022/09/05 08:09:27;;;;;;;3.88;1.50;;;22.40;79.50;;;;;;5047254;28;46848;-75
2022/09/05 08:11:58;;;;;;;4.80;1.50;;;22.50;79.20;;;;;;5047432;28;45799;-74
2022/09/05 08:14:40;;;;;;;1.48;1.30;;;22.50;80.40;;;;;;5047707;28;45270;-75
2022/09/05 08:17:13;;;;;;;1.85;1.40;;;22.60;78.40;;;;;;5047435;28;45625;-75
2022/09/05 08:19:54;;;;;;;2.88;1.08;;;22.60;78.90;;;;;;5047354;28;47549;-75
2022/09/05 08:22:24;;;;;;;1.95;1.23;;;22.60;78.40;;;;;;5047379;28;45275;-75
2022/09/05 08:24:59;;;;;;;2.15;1.30;;;22.60;78.20;;;;;;5047327;28;45350;-75
2022/09/05 08:27:33;;;;;;;1.58;0.90;;;22.70;78.00;;;;;;5047350;28;45414;-75
2022/09/05 08:30:06;;;;;;;1.98;1.15;;;22.70;78.20;;;;;;5046963;28;46559;-75
2022/09/05 08:32:43;;;;;;;2.28;1.20;;;22.70;78.40;;;;;;5047363;28;45415;-75
2022/09/05 08:35:16;;;;;;;1.85;1.20;;;22.60;79.00;;;;;;5047491;28;45302;-75
2022/09/05 08:37:44;;;;;;;4.32;1.48;;;22.60;78.00;;;;;;5047166;28;45436;-75
2022/09/05 08:40:21;;;;;;;6.07;1.10;;;22.70;79.30;;;;;;5046851;28;45472;-75
2022/09/05 08:42:54;;;;;;;1.73;1.23;;;22.70;77.30;;;;;;5046945;28;45865;-75
2022/09/05 08:45:24;;;;;;;1.20;1.10;;;22.70;78.10;;;;;;5047440;28;45344;-75
2022/09/05 08:47:55;;;;;;;1.13;0.82;;;22.70;76.60;;;;;;5047685;28;45120;-75
2022/09/05 08:50:29;;;;;;;2.70;1.20;;;22.80;76.40;;;;;;5046898;28;46616;-75
2022/09/05 08:53:05;;;;;;;2.85;1.02;;;22.80;76.20;;;;;;5047179;28;45263;-75
2022/09/05 08:55:42;;;;;;;2.83;0.90;;;22.80;76.20;;;;;;5048312;28;45243;-74
2022/09/05 08:58:28;;;;;;;1.30;1.00;;;22.80;75.70;;;;;;5047070;28;45338;-75
2022/09/05 09:01:06;;;;;;;4.00;1.00;;;22.80;75.80;;;;;;5046587;28;45697;-76
2022/09/05 09:03:50;;;;;;;1.48;1.02;;;22.80;74.40;;;;;;5043785;28;45251;-75
2022/09/05 09:06:32;;;;;;;2.63;0.93;;;22.90;74.90;;;;;;5046390;28;45414;-75
2022/09/05 09:09:10;;;;;;;1.27;1.05;;;22.90;74.70;;;;;;5047129;28;45376;-75
2022/09/05 09:11:41;;;;;;;2.45;0.90;;;22.90;74.30;;;;;;5046688;28;46978;-75
2022/09/05 09:14:32;;;;;;;1.00;0.90;;;22.90;74.30;;;;;;5046929;28;45203;-75
2022/09/05 09:17:07;;;;;;;1.95;1.00;;;22.90;74.00;;;;;;5046989;28;45206;-75
2022/09/05 09:19:47;;;;;;;1.63;1.10;;;23.00;73.10;;;;;;5046532;28;45315;-75
2022/09/05 09:22:23;;;;;;;1.55;0.98;;;23.00;73.80;;;;;;5046506;28;46295;-75
2022/09/05 09:25:02;;;;;;;1.52;1.00;;;22.90;74.10;;;;;;5046622;28;45157;-76
2022/09/05 09:27:39;;;;;;;1.30;0.90;;;22.90;73.80;;;;;;5046599;28;45417;-74
2022/09/05 09:30:07;;;;;;;1.10;0.90;;;23.00;73.50;;;;;;5046545;28;45435;-75
2022/09/05 09:32:43;;;;;;;0.77;0.77;;;23.00;73.60;;;;;;5046487;28;45262;-75
2022/09/05 09:35:22;;;;;;;2.97;0.90;;;23.00;73.60;;;;;;5046466;28;45385;-75
2022/09/05 09:38:15;;;;;;;2.95;1.08;;;23.00;73.50;;;;;;5046321;28;45101;-75
2022/09/05 09:41:28;;;;;;;1.00;0.75;;;23.00;73.20;;;;;;5046249;28;45146;-75
2022/09/05 09:44:42;;;;;;;0.73;0.70;;;23.00;72.90;;;;;;4965312;28;47357;-75
2022/09/05 09:47:14;;;;;;;1.10;0.85;;;23.00;73.40;;;;;;4945304;28;45172;-74
2022/09/05 09:50:07;;;;;;;0.80;0.80;;;23.00;73.60;;;;;;5037729;28;45361;-75
2022/09/05 09:52:56;;;;;;;0.73;0.70;;;23.00;73.50;;;;;;5046327;28;45602;-75
2022/09/05 09:56:00;;;;;;;1.20;0.70;;;23.00;73.20;;;;;;5043058;28;46484;-75
2022/09/05 09:58:47;;;;;;;1.20;1.02;;;23.00;73.10;;;;;;5045573;28;45383;-75
2022/09/05 10:01:26;;;;;;;2.28;0.95;;;23.00;73.50;;;;;;5045952;28;45408;-75
2022/09/05 10:04:10;;;;;;;1.95;0.77;;;23.00;73.80;;;;;;5046367;28;45053;-75
2022/09/05 10:06:59;;;;;;;1.20;0.82;;;23.00;73.10;;;;;;5045876;28;47298;-75
2022/09/05 10:09:37;;;;;;;1.05;0.95;;;23.00;72.80;;;;;;5045981;28;45268;-75
2022/09/05 10:12:52;;;;;;;1.25;0.70;;;23.00;72.30;;;;;;5042948;28;45265;-75
2022/09/05 10:15:26;;;;;;;1.33;0.70;;;23.00;73.70;;;;;;5001575;28;45277;-75
2022/09/05 10:18:34;;;;;;;0.80;0.75;;;23.00;72.60;;;;;;5045528;28;46374;-75
2022/09/05 10:21:32;;;;;;;1.52;0.80;;;23.00;72.60;;;;;;5045417;28;45712;-75
2022/09/05 10:24:33;;;;;;;0.63;0.60;;;23.00;72.80;;;;;;5042385;28;45139;-75
2022/09/05 10:27:13;;;;;;;1.42;0.80;;;23.00;72.40;;;;;;5042913;28;45177;-75
2022/09/05 10:30:00;;;;;;;1.00;0.70;;;23.10;70.80;;;;;;5045587;28;47627;-75
2022/09/05 10:32:40;;;;;;;1.10;0.73;;;23.10;72.00;;;;;;5045472;28;45334;-75
2022/09/05 10:35:21;;;;;;;0.85;0.70;;;23.10;71.70;;;;;;5045623;28;45143;-75
2022/09/05 10:37:53;;;;;;;1.33;1.00;;;23.00;72.20;;;;;;5045758;28;45509;-75
2022/09/05 10:40:24;;;;;;;1.05;0.80;;;23.00;71.10;;;;;;5046895;28;45787;-74
2022/09/05 10:42:52;;;;;;;1.20;0.95;;;23.00;71.30;;;;;;5045678;28;45304;-75
2022/09/05 10:45:27;;;;;;;0.70;0.70;;;23.10;70.90;;;;;;5045056;28;45190;-75
2022/09/05 10:48:06;;;;;;;0.82;0.70;;;23.10;71.40;;;;;;5042693;28;45197;-75
2022/09/05 10:50:34;;;;;;;0.85;0.80;;;23.10;71.70;;;;;;5045411;28;47173;-75
2022/09/05 10:53:24;;;;;;;1.42;0.50;;;23.10;71.60;;;;;;5045326;28;45207;-75
2022/09/05 10:56:03;;;;;;;0.93;0.80;;;23.10;71.40;;;;;;5045340;28;45246;-75
2022/09/05 10:58:46;;;;;;;0.80;0.70;;;23.10;70.80;;;;;;5045144;28;45422;-75
2022/09/05 11:01:25;;;;;;;1.00;0.70;;;23.10;70.90;;;;;;5045392;28;45214;-75
2022/09/05 11:03:55;;;;;;;1.08;0.70;;;23.10;71.10;;;;;;5045031;28;45281;-76
2022/09/05 11:06:34;;;;;;;0.60;0.60;;;23.10;71.40;;;;;;5045075;28;45169;-75
2022/09/05 11:09:08;;;;;;;0.68;0.68;;;23.00;71.40;;;;;;5045542;28;45389;-76
2022/09/05 11:11:44;;;;;;;1.10;0.88;;;23.10;72.30;;;;;;5044964;28;46794;-75
2022/09/05 11:14:40;;;;;;;0.90;0.73;;;23.10;71.30;;;;;;5044830;28;45238;-75
2022/09/05 11:17:14;;;;;;;1.35;1.00;;;23.10;71.00;;;;;;5045516;28;45201;-75
2022/09/05 11:19:45;;;;;;;0.85;0.77;;;23.10;70.80;;;;;;5045340;28;45428;-75
2022/09/05 11:22:14;;;;;;;1.05;0.73;;;23.10;70.70;;;;;;5041985;28;46138;-75
2022/09/05 11:24:49;;;;;;;1.23;0.82;;;23.10;70.30;;;;;;5045231;28;45078;-75
2022/09/05 11:27:29;;;;;;;0.93;0.80;;;23.10;70.90;;;;;;5045275;28;45208;-75
2022/09/05 11:30:02;;;;;;;1.65;0.80;;;23.10;71.20;;;;;;5048789;28;45305;-75
2022/09/05 11:32:53;;;;;;;1.00;0.88;;;23.10;71.30;;;;;;5050645;28;46408;-75
2022/09/05 11:35:23;;;;;;;0.88;0.75;;;23.10;71.50;;;;;;5009138;28;45430;-75
2022/09/05 11:38:22;;;;;;;0.82;0.70;;;23.00;71.00;;;;;;5048857;28;45215;-75
2022/09/05 11:41:10;;;;;;;0.55;0.55;;;23.10;70.40;;;;;;5048185;28;45539;-75
2022/09/05 11:44:04;;;;;;;0.50;0.50;;;23.10;70.50;;;;;;5048561;28;45165;-75
2022/09/05 11:46:36;;;;;;;0.68;0.60;;;23.20;70.40;;;;;;5047995;28;45691;-75
2022/09/05 11:49:39;;;;;;;0.70;0.70;;;23.20;69.40;;;;;;5048544;28;45175;-75
2022/09/05 11:52:39;;;;;;;1.27;0.60;;;23.10;69.40;;;;;;5048055;28;45568;-75
2022/09/05 11:55:31;;;;;;;0.60;0.60;;;23.10;71.20;;;;;;5047977;28;46514;-75
2022/09/05 11:58:22;;;;;;;0.80;0.70;;;23.10;69.40;;;;;;5047309;28;45336;-75
2022/09/05 12:00:58;;;;;;;1.00;0.80;;;23.10;69.90;;;;;;5048132;28;45065;-75
2022/09/05 12:03:44;;;;;;;0.57;0.50;;;23.10;69.80;;;;;;5048380;28;45091;-75
2022/09/05 12:06:40;;;;;;;0.75;0.60;;;23.10;69.70;;;;;;5047812;28;48202;-75
2022/09/05 12:09:19;;;;;;;1.08;0.60;;;23.20;69.70;;;;;;5047791;28;45320;-75
2022/09/05 12:11:58;;;;;;;0.60;0.60;;;23.10;69.60;;;;;;5044974;28;45132;-75
2022/09/05 12:14:38;;;;;;;0.50;0.50;;;23.20;68.90;;;;;;5048069;28;45485;-75
2022/09/05 12:17:18;;;;;;;0.60;0.60;;;23.10;69.50;;;;;;5047678;28;46596;-75
2022/09/05 12:19:53;;;;;;;0.70;0.70;;;23.20;69.50;;;;;;5047777;28;46013;-75
2022/09/05 12:22:28;;;;;;;0.65;0.65;;;23.20;69.50;;;;;;5047906;28;45224;-75
2022/09/05 12:25:26;;;;;;;0.70;0.60;;;23.20;68.50;;;;;;5049666;28;45492;-75
2022/09/05 12:27:56;;;;;;;1.10;0.60;;;23.20;69.00;;;;;;5047325;28;46350;-75
2022/09/05 12:30:25;;;;;;;0.57;0.57;;;23.20;69.40;;;;;;5047325;28;46032;-75
2022/09/05 12:32:55;;;;;;;1.42;0.50;;;23.20;68.30;;;;;;5047411;28;45395;-75
2022/09/05 12:35:32;;;;;;;0.68;0.50;;;23.20;69.20;;;;;;5047640;28;45122;-75
2022/09/05 12:38:06;;;;;;;0.75;0.32;;;23.20;69.10;;;;;;5047339;28;45204;-75
2022/09/05 12:40:38;;;;;;;0.52;0.50;;;23.20;69.40;;;;;;5047409;28;45128;-75
2022/09/05 12:43:09;;;;;;;1.38;0.70;;;23.20;69.20;;;;;;5047531;28;45330;-75
2022/09/05 12:45:43;;;;;;;0.85;0.77;;;23.20;70.50;;;;;;5047343;28;45441;-75
2022/09/05 12:48:15;;;;;;;0.57;0.43;;;23.10;69.80;;;;;;5047086;28;46530;-75
2022/09/05 12:50:55;;;;;;;0.50;0.50;;;23.10;69.60;;;;;;5047019;28;45582;-75
2022/09/05 12:53:24;;;;;;;0.40;0.40;;;23.10;69.40;;;;;;5047125;28;45341;-75
2022/09/05 12:55:55;;;;;;;0.88;0.70;;;23.10;69.60;;;;;;5047436;28;45592;-75
2022/09/05 12:58:26;;;;;;;0.63;0.50;;;23.20;69.20;;;;;;5046252;28;46281;-75
2022/09/05 13:01:08;;;;;;;0.68;0.68;;;23.20;69.50;;;;;;5046900;28;45180;-76
2022/09/05 13:03:46;;;;;;;0.40;0.40;;;23.20;69.40;;;;;;5047196;28;45332;-75
2022/09/05 13:06:21;;;;;;;0.55;0.50;;;23.20;68.80;;;;;;5047313;28;45147;-75
2022/09/05 13:08:51;;;;;;;1.50;0.70;;;23.20;69.00;;;;;;5047039;28;46745;-76
2022/09/05 13:11:21;;;;;;;0.77;0.60;;;23.20;66.90;;;;;;5062977;28;45290;-74
2022/09/05 13:13:52;;;;;;;0.90;0.60;;;23.20;67.80;;;;;;5068837;28;45555;-74
2022/09/05 13:16:22;;;;;;;1.58;0.57;;;23.40;65.80;;;;;;5065453;28;45207;-74
2022/09/05 13:19:01;;;;;;;0.57;0.50;;;23.40;67.30;;;;;;5066135;28;46700;-73
2022/09/05 13:21:29;;;;;;;2.33;0.80;;;23.30;67.80;;;;;;5048447;28;45955;-73
2022/09/05 13:24:08;;;;;;;5.88;1.42;;;23.30;68.80;;;;;;5065173;28;45477;-73
2022/09/05 13:26:38;;;;;;;5.93;1.65;;;23.30;67.50;;;;;;5065186;28;45483;-74
2022/09/05 13:29:13;;;;;;;6.45;1.10;;;23.20;68.70;;;;;;5064009;28;48395;-74
2022/09/05 13:32:08;;;;;;;7.47;1.00;;;23.40;67.80;;;;;;5049940;28;45938;-74
2022/09/05 13:34:40;;;;;;;3.38;0.77;;;23.50;67.00;;;;;;5065362;28;45417;-74
2022/09/05 13:37:23;;;;;;;5.45;0.70;;;23.50;66.70;;;;;;5064528;28;45436;-72
2022/09/05 13:39:54;;;;;;;17.70;1.80;;;23.50;64.40;;;;;;5065168;28;45466;-73
2022/09/05 13:42:23;;;;;;;7.20;1.50;;;23.70;62.90;;;;;;5066156;28;45226;-75
2022/09/05 13:44:54;;;;;;;5.20;1.00;;;23.70;65.90;;;;;;5071456;28;45430;-75
2022/09/05 13:47:56;;;;;;;2.75;0.80;;;23.60;66.10;;;;;;5086725;28;45197;-74
2022/09/05 13:50:27;;;;;;;2.45;1.20;;;23.60;65.60;;;;;;5085763;28;45374;-75
2022/09/05 13:53:03;;;;;;;3.65;1.27;;;23.60;62.30;;;;;;5086467;28;45491;-74
2022/09/05 13:55:38;;;;;;;2.08;1.10;;;24.50;53.40;;;;;;5086711;28;45288;-75